Time;durP1;ratioP1;P1;durP2;ratioP2;P2;SDS_P1;SDS_P2;PMS_P1;PMS_P2;Temp;Humidity;BMP_temperature;BMP_pressure;BME280_temperature;BME280_humidity;BME280_pressure;Samples;Min_cycle;Max_cycle;Signal;HPM_P1;HPM_P2
2022/05/04 17:48:30;;;;;;;7.13;1.67;;;14.20;51.10;;;;;;5091209;27;20417;-84
2022/05/04 17:50:56;;;;;;;10.10;1.95;;;13.90;50.00;;;;;;5107160;28;20436;-87
2022/05/04 17:53:21;;;;;;;8.35;2.80;;;13.90;49.30;;;;;;5091403;28;20046;-85
2022/05/04 17:55:47;;;;;;;2.75;2.20;;;14.00;48.70;;;;;;5106836;28;20031;-85
2022/05/04 17:58:13;;;;;;;2.50;1.60;;;13.90;49.10;;;;;;5091063;28;20024;-83
2022/05/04 18:00:42;;;;;;;3.10;1.30;;;13.90;48.50;;;;;;5090837;28;20516;-84
2022/05/04 18:05:52;;;;;;;5.47;1.70;;;13.90;48.20;;;;;;5090802;28;20039;-85
2022/05/04 18:08:17;;;;;;;3.53;1.55;;;13.80;47.60;;;;;;5106421;28;20040;-84
2022/05/04 18:10:43;;;;;;;6.15;1.60;;;13.80;46.80;;;;;;5106401;28;20028;-83
2022/05/04 18:13:09;;;;;;;2.75;1.70;;;13.80;47.20;;;;;;5106366;28;20405;-84
2022/05/04 18:15:37;;;;;;;3.28;1.70;;;13.70;46.70;;;;;;5106504;28;20028;-84
2022/05/04 18:18:04;;;;;;;8.18;1.70;;;13.70;46.80;;;;;;5090734;28;20470;-87
2022/05/04 18:20:30;;;;;;;4.95;2.05;;;13.70;46.80;;;;;;5106357;28;20556;-85
2022/05/04 18:22:56;;;;;;;4.38;1.63;;;13.70;45.40;;;;;;5106318;28;20028;-84
2022/05/04 18:25:21;;;;;;;3.22;1.58;;;13.60;45.90;;;;;;5090232;28;20126;-84
2022/05/04 18:27:47;;;;;;;3.75;1.35;;;13.60;46.40;;;;;;5090392;28;20032;-85
2022/05/04 18:30:13;;;;;;;2.80;1.40;;;13.50;46.30;;;;;;5106068;28;20377;-85
2022/05/04 18:32:39;;;;;;;3.63;1.52;;;13.40;46.40;;;;;;5090357;28;20020;-84
2022/05/04 18:35:05;;;;;;;4.43;1.67;;;13.30;46.70;;;;;;5106285;28;20024;-87
2022/05/04 18:37:32;;;;;;;5.00;1.50;;;13.40;46.90;;;;;;5090293;28;20032;-85
2022/05/04 18:39:58;;;;;;;4.22;2.08;;;13.40;47.40;;;;;;5105667;28;20029;-87
2022/05/04 18:42:24;;;;;;;6.88;2.10;;;13.30;47.90;;;;;;5089963;28;20020;-84
2022/05/04 18:44:50;;;;;;;4.90;1.67;;;13.20;48.80;;;;;;5106014;28;20493;-84
2022/05/04 18:47:15;;;;;;;10.45;1.95;;;13.20;49.40;;;;;;5089720;28;20125;-84
2022/05/04 18:49:41;;;;;;;2.70;1.45;;;13.10;50.10;;;;;;5090004;28;20359;-84
2022/05/04 18:52:09;;;;;;;6.18;2.35;;;13.00;50.50;;;;;;5105809;28;20115;-85
2022/05/04 18:54:35;;;;;;;4.93;2.33;;;13.00;51.30;;;;;;5105683;28;20474;-84
2022/05/04 18:57:01;;;;;;;7.30;2.20;;;12.90;51.40;;;;;;5105662;28;20028;-84
2022/05/04 18:59:27;;;;;;;5.90;2.13;;;12.80;51.70;;;;;;5094309;28;20474;-86
2022/05/04 19:01:53;;;;;;;5.07;2.22;;;12.70;52.10;;;;;;5076358;28;20095;-84
2022/05/04 19:04:18;;;;;;;12.20;2.47;;;12.70;52.30;;;;;;5076303;28;20063;-86
2022/05/04 19:06:44;;;;;;;3.97;2.15;;;12.70;52.90;;;;;;5091754;28;20025;-84
2022/05/04 19:09:10;;;;;;;5.82;2.50;;;12.60;53.30;;;;;;5076082;28;20024;-86
2022/05/04 19:11:36;;;;;;;8.32;2.25;;;12.60;53.40;;;;;;5075965;28;20038;-83
2022/05/04 19:14:01;;;;;;;9.75;2.60;;;12.40;53.60;;;;;;5091800;28;20119;-83
2022/05/04 19:16:27;;;;;;;4.40;2.55;;;12.40;54.40;;;;;;5091803;28;20020;-85
2022/05/04 19:18:53;;;;;;;9.57;2.20;;;12.30;54.90;;;;;;5091597;28;20024;-85
2022/05/04 19:21:22;;;;;;;5.80;2.63;;;12.20;55.30;;;;;;5091640;28;20035;-83
2022/05/04 19:23:48;;;;;;;5.30;2.30;;;12.20;55.70;;;;;;5091156;28;20024;-84
2022/05/04 19:26:16;;;;;;;4.55;2.20;;;12.10;55.80;;;;;;5075935;28;20024;-85
2022/05/04 19:28:42;;;;;;;6.35;2.30;;;12.00;55.90;;;;;;5091185;28;20016;-87
2022/05/04 19:31:08;;;;;;;6.30;2.30;;;12.00;55.60;;;;;;5091328;28;20074;-85
2022/05/04 19:33:33;;;;;;;4.15;2.10;;;11.90;55.70;;;;;;5076052;28;20021;-85
2022/05/04 19:35:59;;;;;;;3.05;2.17;;;11.90;55.90;;;;;;5091613;28;20482;-88
2022/05/04 19:38:25;;;;;;;10.93;2.53;;;11.90;55.30;;;;;;5091607;28;20024;-84
2022/05/04 19:40:51;;;;;;;5.25;2.58;;;11.90;54.60;;;;;;5091492;28;20035;-85
2022/05/04 19:43:17;;;;;;;3.08;1.83;;;11.80;55.00;;;;;;5091403;28;20024;-85
2022/05/04 19:45:43;;;;;;;2.83;1.92;;;11.70;55.50;;;;;;5091201;28;20036;-85
2022/05/04 19:48:09;;;;;;;8.25;2.40;;;11.60;55.80;;;;;;5091377;28;20053;-85
2022/05/04 19:50:35;;;;;;;4.93;2.00;;;11.50;55.80;;;;;;5091170;28;20043;-87
2022/05/04 19:53:01;;;;;;;5.18;2.28;;;11.50;55.30;;;;;;5091017;28;20466;-86
2022/05/04 19:55:27;;;;;;;4.47;1.92;;;11.50;55.00;;;;;;5075747;28;20032;-85
2022/05/04 19:57:52;;;;;;;3.08;1.83;;;11.40;55.40;;;;;;5091270;28;20032;-86
2022/05/04 20:00:18;;;;;;;6.55;2.08;;;11.30;55.30;;;;;;5075741;28;20024;-89
2022/05/04 20:02:44;;;;;;;6.18;1.85;;;11.30;55.10;;;;;;5091968;28;20028;-87
2022/05/04 20:05:10;;;;;;;4.25;1.98;;;11.30;55.30;;;;;;5075837;28;20029;-87
2022/05/04 20:07:36;;;;;;;3.33;1.73;;;11.30;55.10;;;;;;5090819;28;20391;-87
2022/05/04 20:10:03;;;;;;;7.30;2.10;;;11.20;55.20;;;;;;5089893;28;20489;-84
2022/05/04 20:12:28;;;;;;;6.45;1.75;;;11.10;55.30;;;;;;5075569;28;20051;-86
2022/05/04 20:14:54;;;;;;;4.65;2.13;;;11.10;55.80;;;;;;5075382;28;20021;-86
2022/05/04 20:17:20;;;;;;;4.72;1.80;;;11.00;55.70;;;;;;5074300;28;20390;-88
2022/05/04 20:19:46;;;;;;;4.40;2.03;;;11.00;55.30;;;;;;5091212;28;20072;-87
2022/05/04 20:22:12;;;;;;;5.78;2.17;;;10.90;55.50;;;;;;5091043;28;20490;-87
2022/05/04 20:24:38;;;;;;;3.67;1.70;;;10.80;55.90;;;;;;5090852;28;20031;-86
2022/05/04 20:27:04;;;;;;;4.50;1.80;;;10.70;56.50;;;;;;5090676;28;20028;-86
2022/05/04 20:29:29;;;;;;;4.95;1.60;;;10.60;57.10;;;;;;5074954;28;20020;-87
2022/05/04 20:31:55;;;;;;;2.17;1.83;;;10.60;57.20;;;;;;5089719;28;20025;-85
2022/05/04 20:34:21;;;;;;;6.63;1.95;;;10.60;57.10;;;;;;5054722;28;20025;-86
2022/05/04 20:36:47;;;;;;;5.63;1.80;;;10.40;57.40;;;;;;5053768;28;20033;-85
2022/05/04 20:39:13;;;;;;;9.15;3.40;;;10.40;58.10;;;;;;5053743;28;20386;-87
2022/05/04 20:41:41;;;;;;;7.05;2.05;;;10.40;58.30;;;;;;5053954;28;20463;-88
2022/05/04 20:44:11;;;;;;;2.50;1.70;;;10.40;58.10;;;;;;5053831;28;20059;-89
2022/05/04 20:46:37;;;;;;;;;;;10.40;58.20;;;;;;5054091;28;20071;-88
2022/05/04 20:49:06;;;;;;;6.78;2.33;;;10.20;58.60;;;;;;5053585;28;20255;-87
2022/05/04 20:54:17;;;;;;;3.95;1.77;;;10.20;59.20;;;;;;5054986;28;20036;-86
2022/05/04 20:56:43;;;;;;;4.30;1.95;;;10.10;59.20;;;;;;5053491;28;20051;-87
2022/05/04 20:59:12;;;;;;;5.43;2.28;;;10.00;59.40;;;;;;5053577;28;20028;-88
2022/05/04 21:01:39;;;;;;;5.97;2.03;;;9.90;59.50;;;;;;5054593;28;20490;-86
2022/05/04 21:04:06;;;;;;;10.88;2.78;;;10.00;60.10;;;;;;5054500;28;20036;-87
2022/05/04 21:06:33;;;;;;;6.38;2.42;;;9.90;60.10;;;;;;5053221;28;20376;-87
2022/05/04 21:08:59;;;;;;;5.68;2.15;;;9.90;60.10;;;;;;5053224;28;20051;-88
2022/05/04 21:11:28;;;;;;;8.52;2.30;;;9.90;60.20;;;;;;5053463;28;20024;-86
2022/05/04 21:13:55;;;;;;;4.47;2.25;;;9.90;60.20;;;;;;5053258;28;20360;-86
2022/05/04 21:16:21;;;;;;;4.45;2.08;;;9.80;60.10;;;;;;5053029;28;20090;-88
2022/05/04 21:18:46;;;;;;;6.85;2.60;;;9.70;60.30;;;;;;5053123;28;20033;-85
2022/05/04 21:21:16;;;;;;;5.57;2.40;;;9.70;60.30;;;;;;5053857;28;20541;-86
2022/05/04 21:23:45;;;;;;;7.05;2.15;;;9.60;60.70;;;;;;5052981;28;20021;-86
2022/05/04 21:26:11;;;;;;;2.80;2.30;;;9.60;60.50;;;;;;5052970;28;20025;-87
2022/05/04 21:28:37;;;;;;;5.10;2.10;;;9.60;60.30;;;;;;5062385;28;20493;-87
2022/05/04 21:31:04;;;;;;;4.57;2.35;;;9.60;60.60;;;;;;5072697;28;20021;-87
2022/05/04 21:33:30;;;;;;;3.55;2.30;;;9.60;61.20;;;;;;5072669;28;20021;-85
2022/05/04 21:35:56;;;;;;;4.28;2.30;;;9.50;61.10;;;;;;5072591;28;20038;-86
2022/05/04 21:38:21;;;;;;;4.53;2.13;;;9.40;61.20;;;;;;5072726;28;20025;-87
2022/05/04 21:40:47;;;;;;;8.27;2.65;;;9.40;61.40;;;;;;5072443;28;20032;-87
2022/05/04 21:43:13;;;;;;;6.95;2.72;;;9.40;61.10;;;;;;5072498;28;20108;-86
2022/05/04 21:45:39;;;;;;;5.40;2.42;;;9.40;61.60;;;;;;5072911;28;20535;-90
2022/05/04 21:48:05;;;;;;;4.70;2.50;;;9.30;61.80;;;;;;5072316;28;20040;-86
2022/05/04 21:50:31;;;;;;;3.72;2.17;;;9.10;62.90;;;;;;5072899;28;20024;-87
2022/05/04 21:52:56;;;;;;;4.65;2.10;;;9.10;62.50;;;;;;5072364;28;20016;-86
2022/05/04 21:55:22;;;;;;;3.83;2.33;;;9.00;63.10;;;;;;5072497;28;20024;-88
2022/05/04 21:57:48;;;;;;;5.85;3.25;;;9.00;63.20;;;;;;5072287;28;20437;-86
2022/05/04 22:00:46;;;;;;;6.32;3.20;;;8.90;63.30;;;;;;5073418;28;20481;-89
2022/05/04 22:03:14;;;;;;;8.18;2.88;;;8.90;63.30;;;;;;5072239;28;20040;-86
2022/05/04 22:05:41;;;;;;;9.13;3.40;;;8.90;63.20;;;;;;5072176;28;20024;-85
2022/05/04 22:08:08;;;;;;;6.53;2.97;;;8.90;62.90;;;;;;5071843;28;20024;-86
2022/05/04 22:10:35;;;;;;;6.05;2.60;;;8.90;63.00;;;;;;5103290;28;20055;-86
2022/05/04 22:15:46;;;;;;;11.77;3.47;;;8.80;63.70;;;;;;5072833;28;20019;-87
2022/05/04 22:18:11;;;;;;;5.78;3.38;;;8.80;64.20;;;;;;5072485;28;20020;-88
2022/05/04 22:20:37;;;;;;;6.53;2.75;;;8.70;63.90;;;;;;5072160;28;20108;-85
2022/05/04 22:23:03;;;;;;;4.45;2.35;;;8.70;64.00;;;;;;5072379;28;20082;-86
2022/05/04 22:25:29;;;;;;;5.32;2.67;;;8.80;64.20;;;;;;5072004;28;20466;-86
2022/05/04 22:27:55;;;;;;;4.85;2.88;;;8.70;64.40;;;;;;5072218;28;20052;-87
2022/05/04 22:30:27;;;;;;;6.57;2.92;;;8.60;64.40;;;;;;5073279;28;20032;-87
2022/05/04 22:32:53;;;;;;;4.07;2.60;;;8.60;64.40;;;;;;5072151;28;20027;-87
2022/05/04 22:35:18;;;;;;;5.35;2.53;;;8.60;64.00;;;;;;5075884;28;20413;-86
2022/05/04 22:37:44;;;;;;;2.83;2.40;;;8.50;64.10;;;;;;5075827;28;20016;-88
2022/05/04 22:40:10;;;;;;;8.77;2.90;;;8.40;64.40;;;;;;5075706;28;20466;-86
2022/05/04 22:42:36;;;;;;;7.55;2.80;;;8.40;64.40;;;;;;5076969;28;20024;-87
2022/05/04 22:45:02;;;;;;;4.28;2.15;;;8.40;64.50;;;;;;5075787;28;20155;-86
2022/05/04 22:47:28;;;;;;;4.18;2.58;;;8.40;64.70;;;;;;5075477;28;20079;-87
2022/05/04 22:49:55;;;;;;;7.28;2.60;;;8.30;64.80;;;;;;5072953;28;20105;-87
2022/05/04 22:52:21;;;;;;;5.03;2.33;;;8.30;64.50;;;;;;5075480;28;20032;-89
2022/05/04 22:54:47;;;;;;;3.13;2.20;;;8.30;64.30;;;;;;5075885;28;20463;-87
2022/05/04 22:57:12;;;;;;;6.15;2.58;;;8.30;64.30;;;;;;5077390;28;20048;-85
2022/05/04 22:59:39;;;;;;;4.03;2.17;;;8.40;64.20;;;;;;5076272;28;20024;-87
2022/05/04 23:02:04;;;;;;;2.92;2.53;;;8.40;64.30;;;;;;5076094;28;20470;-86
2022/05/04 23:04:30;;;;;;;6.15;2.63;;;8.30;64.70;;;;;;5075866;28;20037;-87
2022/05/04 23:06:56;;;;;;;4.20;2.20;;;8.20;65.00;;;;;;5075699;28;20482;-86
2022/05/04 23:09:23;;;;;;;5.15;2.33;;;8.10;65.30;;;;;;5076870;28;20020;-88
2022/05/04 23:11:49;;;;;;;4.28;2.72;;;8.10;65.40;;;;;;5076541;28;20024;-85
2022/05/04 23:14:14;;;;;;;4.82;2.25;;;8.10;65.30;;;;;;5075565;28;20107;-86
2022/05/04 23:16:41;;;;;;;9.38;2.75;;;8.10;65.10;;;;;;5075890;28;20071;-87
2022/05/04 23:19:06;;;;;;;4.75;2.22;;;8.10;65.20;;;;;;5075898;28;20063;-90
2022/05/04 23:21:33;;;;;;;5.38;2.30;;;8.10;65.20;;;;;;5076793;28;20052;-87
2022/05/04 23:23:58;;;;;;;6.03;2.50;;;8.10;65.40;;;;;;5075596;28;20028;-87
2022/05/04 23:26:24;;;;;;;4.68;2.65;;;8.10;65.10;;;;;;5076685;28;20468;-87
2022/05/04 23:28:50;;;;;;;3.60;2.40;;;8.00;65.60;;;;;;5075592;28;20031;-89
2022/05/04 23:31:16;;;;;;;5.63;2.60;;;8.00;65.20;;;;;;5075741;28;20031;-87
2022/05/04 23:33:41;;;;;;;5.65;2.50;;;8.00;65.00;;;;;;5075493;28;20104;-87
2022/05/04 23:38:53;;;;;;;10.07;2.80;;;7.90;65.20;;;;;;5077045;28;20074;-89
2022/05/04 23:41:19;;;;;;;6.28;2.55;;;7.90;65.30;;;;;;5076619;28;20032;-88
2022/05/04 23:43:46;;;;;;;7.22;2.72;;;7.90;64.80;;;;;;5075370;28;20024;-87
2022/05/04 23:46:11;;;;;;;3.33;2.58;;;7.80;65.30;;;;;;5076148;28;20029;-90
2022/05/04 23:48:37;;;;;;;7.18;2.65;;;7.80;65.30;;;;;;5076108;28;20528;-89
2022/05/04 23:51:04;;;;;;;3.10;2.30;;;7.80;65.20;;;;;;5075314;28;20142;-89
2022/05/04 23:53:36;;;;;;;3.05;2.03;;;7.80;65.30;;;;;;5076440;28;20047;-88
2022/05/04 23:56:03;;;;;;;3.25;2.22;;;7.70;65.40;;;;;;5075191;28;20044;-88
2022/05/04 23:58:29;;;;;;;5.35;2.55;;;7.70;65.90;;;;;;5075605;28;20021;-88
